createdAt,value
2018-04-12T00:00:34.919Z,0.00
2018-04-12T00:01:34.923Z,0.00
2018-04-12T00:02:34.920Z,0.00
2018-04-12T00:03:34.921Z,0.00
2018-04-12T00:04:34.921Z,0.00
2018-04-12T00:05:34.925Z,0.00
2018-04-12T00:06:34.925Z,0.00
2018-04-12T00:07:34.922Z,0.00
2018-04-12T00:08:34.921Z,0.00
2018-04-12T00:09:34.923Z,0.00
2018-04-12T00:10:34.924Z,0.00
2018-04-12T00:11:34.925Z,0.00
2018-04-12T00:12:34.925Z,0.00
2018-04-12T00:13:34.924Z,0.00
2018-04-12T00:14:34.926Z,0.00
2018-04-12T00:15:34.926Z,0.00
2018-04-12T00:16:34.925Z,0.00
2018-04-12T00:17:34.925Z,0.00
2018-04-12T00:18:34.925Z,0.00
2018-04-12T00:19:34.928Z,0.00
2018-04-12T00:20:34.944Z,0.00
2018-04-12T00:21:34.927Z,0.00
2018-04-12T00:22:34.932Z,0.00
2018-04-12T00:23:34.930Z,0.00
2018-04-12T00:24:34.931Z,0.00
2018-04-12T00:25:34.930Z,0.00
2018-04-12T00:26:34.930Z,0.00
2018-04-12T00:27:34.933Z,0.00
2018-04-12T00:28:34.929Z,0.00
2018-04-12T00:29:34.930Z,0.00
2018-04-12T00:30:34.931Z,0.00
2018-04-12T00:31:34.931Z,0.00
2018-04-12T00:32:34.931Z,0.00
2018-04-12T00:33:34.930Z,0.00
2018-04-12T00:34:34.933Z,0.00
2018-04-12T00:35:34.933Z,0.00
2018-04-12T00:36:34.932Z,0.00
2018-04-12T00:37:34.932Z,0.00
2018-04-12T00:38:34.933Z,0.00
2018-04-12T00:39:34.937Z,0.00
2018-04-12T00:40:34.933Z,0.00
2018-04-12T00:41:34.933Z,0.00
2018-04-12T00:42:34.936Z,0.00
2018-04-12T00:43:34.935Z,0.00
2018-04-12T00:44:34.935Z,0.00
2018-04-12T00:45:34.937Z,0.00
2018-04-12T00:46:34.936Z,0.00
2018-04-12T00:47:34.936Z,0.00
2018-04-12T00:48:34.938Z,0.00
2018-04-12T00:49:34.937Z,0.00
2018-04-12T00:50:34.937Z,0.00
2018-04-12T00:51:34.938Z,0.00
2018-04-12T00:52:34.937Z,0.00
2018-04-12T00:53:34.937Z,0.00
2018-04-12T00:54:34.936Z,0.00
2018-04-12T00:55:34.943Z,0.00
2018-04-12T00:56:34.938Z,0.00
2018-04-12T00:57:34.938Z,0.00
2018-04-12T00:58:34.940Z,0.00
2018-04-12T00:59:34.940Z,0.00
2018-04-12T01:00:34.939Z,0.00
2018-04-12T01:01:34.939Z,0.00
2018-04-12T01:02:34.942Z,0.00
2018-04-12T01:03:34.943Z,0.00
2018-04-12T01:04:34.942Z,0.00
2018-04-12T01:05:34.941Z,0.00
2018-04-12T01:06:34.941Z,0.00
2018-04-12T01:07:34.944Z,0.00
2018-04-12T01:08:34.942Z,0.00
2018-04-12T01:09:34.943Z,0.00
2018-04-12T01:10:34.943Z,0.00
2018-04-12T01:11:34.943Z,0.00
2018-04-12T01:12:34.945Z,0.00
2018-04-12T01:13:34.944Z,0.00
2018-04-12T01:14:34.944Z,0.00
2018-04-12T01:15:34.945Z,0.00
2018-04-12T01:16:34.944Z,0.00
2018-04-12T01:17:34.946Z,0.00
2018-04-12T01:18:34.945Z,0.00
2018-04-12T01:19:34.945Z,0.00
2018-04-12T01:20:34.945Z,0.00
2018-04-12T01:21:34.946Z,0.00
2018-04-12T01:22:34.945Z,0.00
2018-04-12T01:23:34.946Z,0.00
2018-04-12T01:24:34.946Z,0.00
2018-04-12T01:25:34.950Z,0.00
2018-04-12T01:26:34.946Z,0.00
2018-04-12T01:27:34.949Z,0.00
2018-04-12T01:28:34.948Z,0.00
2018-04-12T01:29:34.947Z,0.00
2018-04-12T01:30:34.947Z,0.00
2018-04-12T01:31:34.948Z,0.00
2018-04-12T01:32:34.947Z,0.00
2018-04-12T01:33:34.949Z,0.00
2018-04-12T01:34:34.948Z,0.00
2018-04-12T01:35:34.948Z,0.00
2018-04-12T01:36:34.948Z,0.00
2018-04-12T01:37:34.948Z,0.00
2018-04-12T01:38:34.950Z,0.00
2018-04-12T01:39:34.949Z,0.00
2018-04-12T01:40:34.950Z,0.00
2018-04-12T01:41:34.950Z,0.00
2018-04-12T01:42:34.949Z,0.00
2018-04-12T01:43:34.951Z,0.00
2018-04-12T01:44:34.950Z,0.00
2018-04-12T01:45:34.950Z,0.00
2018-04-12T01:46:34.952Z,0.00
2018-04-12T01:47:34.951Z,0.00
2018-04-12T01:48:34.951Z,0.00
2018-04-12T01:49:34.952Z,0.00
2018-04-12T01:50:34.950Z,0.00
2018-04-12T01:51:34.951Z,0.00
2018-04-12T01:52:34.951Z,0.00
2018-04-12T01:53:34.952Z,0.00
2018-04-12T01:54:34.950Z,0.00
2018-04-12T01:55:34.952Z,0.00
2018-04-12T01:56:34.950Z,0.00
2018-04-12T01:57:34.952Z,0.00
2018-04-12T01:58:34.953Z,0.00
2018-04-12T01:59:34.953Z,0.00
2018-04-12T02:00:34.951Z,0.00
2018-04-12T02:01:34.953Z,0.00
2018-04-12T02:02:34.958Z,0.00
2018-04-12T02:03:34.953Z,0.00
2018-04-12T02:04:34.952Z,0.00
2018-04-12T02:05:34.953Z,0.00
2018-04-12T02:06:34.976Z,0.00
2018-04-12T02:07:34.954Z,0.00
2018-04-12T02:08:34.952Z,0.00
2018-04-12T02:09:34.951Z,0.00
2018-04-12T02:10:34.952Z,0.00
2018-04-12T02:11:34.952Z,0.00
2018-04-12T02:12:34.951Z,0.00
2018-04-12T02:13:34.951Z,0.00
2018-04-12T02:14:34.951Z,0.00
2018-04-12T02:15:34.951Z,0.00
2018-04-12T02:16:34.950Z,0.00
2018-04-12T02:17:34.951Z,0.00
2018-04-12T02:18:34.949Z,0.00
2018-04-12T02:19:34.952Z,0.00
2018-04-12T02:20:34.949Z,0.00
2018-04-12T02:21:34.947Z,0.00
2018-04-12T02:22:34.947Z,0.00
2018-04-12T02:23:34.948Z,0.00
2018-04-12T02:24:34.946Z,0.00
2018-04-12T02:25:34.946Z,0.00
2018-04-12T02:26:34.945Z,0.00
2018-04-12T02:27:34.945Z,0.00
2018-04-12T02:28:34.943Z,0.00
2018-04-12T02:29:34.944Z,0.00
2018-04-12T02:30:34.946Z,0.00
2018-04-12T02:31:34.942Z,0.00
2018-04-12T02:32:34.940Z,0.00
2018-04-12T02:33:34.939Z,0.00
2018-04-12T02:34:34.940Z,0.00
2018-04-12T02:35:34.941Z,0.00
2018-04-12T02:36:34.938Z,0.00
2018-04-12T02:37:34.939Z,0.00
2018-04-12T02:38:34.939Z,0.00
2018-04-12T02:39:34.937Z,0.00
2018-04-12T02:40:34.936Z,0.00
2018-04-12T02:41:34.938Z,0.00
2018-04-12T02:42:34.949Z,0.00
2018-04-12T02:43:34.935Z,0.00
2018-04-12T02:44:34.935Z,0.00
2018-04-12T02:45:34.933Z,0.00
2018-04-12T02:46:34.933Z,0.00
2018-04-12T02:47:34.935Z,0.00
2018-04-12T02:48:34.933Z,0.00
2018-04-12T02:49:34.932Z,0.00
2018-04-12T02:50:34.940Z,0.00
2018-04-12T02:51:34.933Z,0.00
2018-04-12T02:52:34.932Z,0.00
2018-04-12T02:53:34.932Z,0.00
2018-04-12T02:54:34.934Z,0.00
2018-04-12T02:55:34.937Z,0.00
2018-04-12T02:56:34.931Z,0.00
2018-04-12T02:57:34.934Z,0.00
2018-04-12T02:58:34.931Z,0.00
2018-04-12T02:59:34.931Z,0.00
2018-04-12T03:00:34.931Z,0.00
2018-04-12T03:01:34.932Z,0.00
2018-04-12T03:02:34.931Z,0.00
2018-04-12T03:03:34.935Z,0.00
2018-04-12T03:04:34.930Z,0.00
2018-04-12T03:05:34.932Z,0.00
2018-04-12T03:06:34.933Z,0.00
2018-04-12T03:07:34.932Z,0.00
2018-04-12T03:08:34.932Z,0.00
2018-04-12T03:09:34.931Z,0.00
2018-04-12T03:10:34.931Z,0.00
2018-04-12T03:11:34.933Z,0.00
2018-04-12T03:12:34.931Z,0.00
2018-04-12T03:13:34.933Z,0.00
2018-04-12T03:14:34.932Z,0.00
2018-04-12T03:15:34.934Z,0.00
2018-04-12T03:16:34.933Z,0.00
2018-04-12T03:17:34.934Z,0.00
2018-04-12T03:18:34.933Z,0.00
2018-04-12T03:19:34.934Z,0.00
2018-04-12T03:20:34.932Z,0.00
2018-04-12T03:21:34.933Z,0.00
2018-04-12T03:22:34.935Z,0.00
2018-04-12T03:23:34.934Z,0.00
2018-04-12T03:24:34.934Z,0.00
2018-04-12T03:25:34.933Z,0.00
2018-04-12T03:26:34.933Z,0.00
2018-04-12T03:27:34.934Z,0.00
2018-04-12T03:28:34.934Z,0.00
2018-04-12T03:29:34.933Z,0.00
2018-04-12T03:30:34.935Z,0.00
2018-04-12T03:31:34.935Z,0.00
2018-04-12T03:32:34.933Z,0.00
2018-04-12T03:33:34.934Z,0.00
2018-04-12T03:34:34.937Z,0.00
2018-04-12T03:35:34.933Z,0.00
2018-04-12T03:36:34.934Z,0.00
2018-04-12T03:37:34.934Z,0.00
2018-04-12T03:38:34.935Z,0.00
2018-04-12T03:39:34.935Z,0.00
2018-04-12T03:40:34.933Z,0.00
2018-04-12T03:41:34.933Z,0.00
2018-04-12T03:42:34.933Z,0.00
2018-04-12T03:43:34.934Z,0.00
2018-04-12T03:44:34.936Z,0.00
2018-04-12T03:45:34.933Z,0.00
2018-04-12T03:46:34.934Z,0.00
2018-04-12T03:47:34.935Z,0.00
2018-04-12T03:48:34.977Z,0.00
2018-04-12T03:49:34.987Z,0.00
2018-04-12T03:50:34.955Z,0.00
2018-04-12T03:51:34.936Z,0.00
2018-04-12T03:52:34.934Z,0.00
2018-04-12T03:53:34.934Z,0.00
2018-04-12T03:54:34.934Z,0.00
2018-04-12T03:55:34.936Z,0.00
2018-04-12T03:56:34.935Z,0.00
2018-04-12T03:57:34.935Z,0.00
2018-04-12T03:58:34.935Z,0.00
2018-04-12T03:59:34.935Z,0.00
2018-04-12T04:00:34.935Z,0.00
2018-04-12T04:01:34.935Z,0.00
2018-04-12T04:02:34.939Z,0.00
2018-04-12T04:03:34.937Z,0.00
2018-04-12T04:04:34.935Z,0.00
2018-04-12T04:05:34.937Z,0.00
2018-04-12T04:06:34.938Z,0.00
2018-04-12T04:07:34.939Z,0.00
2018-04-12T04:08:34.936Z,0.00
2018-04-12T04:09:34.936Z,0.00
2018-04-12T04:10:34.936Z,0.00
2018-04-12T04:11:34.936Z,0.00
2018-04-12T04:12:34.935Z,0.00
2018-04-12T04:13:34.936Z,0.00
2018-04-12T04:14:34.935Z,0.00
2018-04-12T04:15:34.936Z,0.00
2018-04-12T04:16:34.935Z,0.00
2018-04-12T04:17:34.936Z,0.00
2018-04-12T04:18:34.935Z,0.00
2018-04-12T04:19:34.935Z,0.00
2018-04-12T04:20:34.935Z,0.00
2018-04-12T04:21:34.934Z,0.00
2018-04-12T04:22:34.936Z,0.00
2018-04-12T04:23:34.935Z,0.00
2018-04-12T04:24:34.935Z,0.00
2018-04-12T04:25:34.933Z,0.00
2018-04-12T04:26:34.933Z,0.00
2018-04-12T04:27:34.933Z,0.00
2018-04-12T04:28:34.934Z,0.00
2018-04-12T04:29:34.933Z,0.00
2018-04-12T04:30:34.938Z,0.00
2018-04-12T04:31:34.933Z,0.00
2018-04-12T04:32:34.931Z,0.00
2018-04-12T04:33:34.930Z,5.63
2018-04-12T04:34:34.934Z,5.63
2018-04-12T04:35:34.931Z,5.63
2018-04-12T04:36:34.929Z,5.63
2018-04-12T04:37:34.930Z,5.63
2018-04-12T04:38:34.932Z,5.63
2018-04-12T04:39:34.928Z,5.63
2018-04-12T04:40:34.928Z,5.63
2018-04-12T04:41:34.932Z,11.25
2018-04-12T04:42:34.927Z,11.25
2018-04-12T04:43:34.927Z,11.25
2018-04-12T04:44:34.925Z,11.25
2018-04-12T04:45:34.925Z,11.25
2018-04-12T04:46:34.925Z,11.25
2018-04-12T04:47:34.925Z,16.88
2018-04-12T04:48:34.924Z,16.88
2018-04-12T04:49:34.923Z,16.88
2018-04-12T04:50:34.923Z,16.88
2018-04-12T04:51:34.923Z,22.50
2018-04-12T04:52:34.930Z,22.50
2018-04-12T04:53:34.921Z,22.50
2018-04-12T04:54:34.921Z,28.13
2018-04-12T04:55:34.926Z,28.13
2018-04-12T04:56:34.921Z,28.13
2018-04-12T04:57:34.920Z,28.13
2018-04-12T04:58:34.922Z,33.75
2018-04-12T04:59:34.920Z,33.75
2018-04-12T05:00:34.921Z,33.75
2018-04-12T05:01:34.921Z,33.75
2018-04-12T05:02:34.920Z,39.38
2018-04-12T05:03:34.926Z,39.38
2018-04-12T05:04:34.920Z,39.38
2018-04-12T05:05:34.920Z,39.38
2018-04-12T05:06:34.929Z,45.00
2018-04-12T05:07:34.931Z,45.00
2018-04-12T05:08:34.919Z,45.00
2018-04-12T05:09:34.922Z,45.00
2018-04-12T05:10:34.920Z,50.63
2018-04-12T05:11:34.930Z,50.63
2018-04-12T05:12:34.921Z,50.63
2018-04-12T05:13:34.921Z,50.63
2018-04-12T05:14:34.922Z,56.25
2018-04-12T05:15:34.997Z,56.25
2018-04-12T05:16:34.922Z,56.25
2018-04-12T05:17:34.921Z,56.25
2018-04-12T05:18:34.921Z,61.88
2018-04-12T05:19:34.921Z,61.88
2018-04-12T05:20:34.920Z,61.88
2018-04-12T05:21:34.921Z,61.88
2018-04-12T05:22:34.923Z,67.50
2018-04-12T05:23:34.922Z,67.50
2018-04-12T05:24:34.922Z,67.50
2018-04-12T05:25:34.921Z,67.50
2018-04-12T05:26:34.925Z,67.50
2018-04-12T05:27:34.923Z,73.13
2018-04-12T05:28:34.923Z,73.13
2018-04-12T05:29:34.922Z,78.75
2018-04-12T05:30:34.923Z,78.75
2018-04-12T05:31:34.925Z,84.38
2018-04-12T05:32:34.924Z,84.38
2018-04-12T05:33:34.925Z,84.38
2018-04-12T05:34:34.925Z,90.00
2018-04-12T05:38:04.120Z,95.63
2018-04-12T05:39:04.122Z,101.25
2018-04-12T05:40:04.122Z,101.25
2018-04-12T05:41:04.124Z,101.25
2018-04-12T05:42:04.123Z,101.25
2018-04-12T05:43:04.125Z,101.25
2018-04-12T05:44:04.133Z,106.88
2018-04-12T05:45:04.126Z,106.88
2018-04-12T05:46:04.126Z,112.50
2018-04-12T05:47:04.126Z,112.50
2018-04-12T05:48:04.129Z,118.13
2018-04-12T05:49:04.129Z,118.13
2018-04-12T05:50:04.130Z,118.13
2018-04-12T05:51:04.135Z,123.75
2018-04-12T05:52:04.132Z,123.75
2018-04-12T05:53:04.134Z,129.38
2018-04-12T05:54:04.133Z,129.38
2018-04-12T05:55:04.135Z,135.00
2018-04-12T05:56:04.135Z,135.00
2018-04-12T05:57:04.137Z,135.00
2018-04-12T05:58:04.192Z,135.00
2018-04-12T05:59:04.139Z,140.63
2018-04-12T06:00:04.209Z,146.25
2018-04-12T06:01:04.186Z,146.25
2018-04-12T06:02:04.147Z,151.88
2018-04-12T06:03:04.225Z,151.88
2018-04-12T06:04:04.195Z,151.88
2018-04-12T06:05:04.175Z,151.88
2018-04-12T06:06:04.171Z,157.50
2018-04-12T06:07:04.194Z,157.50
2018-04-12T06:08:04.155Z,163.13
2018-04-12T06:09:04.284Z,163.13
2018-04-12T06:10:04.156Z,163.13
2018-04-12T06:11:04.157Z,168.75
2018-04-12T06:12:04.163Z,168.75
2018-04-12T06:13:04.169Z,174.38
2018-04-12T06:14:04.303Z,174.38
2018-04-12T06:15:04.165Z,180.00
2018-04-12T06:16:04.166Z,180.00
2018-04-12T06:17:04.172Z,191.25
2018-04-12T06:18:04.172Z,185.63
2018-04-12T06:19:04.171Z,191.25
2018-04-12T06:20:04.174Z,191.25
2018-04-12T06:21:04.176Z,196.88
2018-04-12T06:22:04.178Z,196.88
2018-04-12T06:23:04.179Z,202.50
2018-04-12T06:24:04.182Z,202.50
2018-04-12T06:25:04.433Z,202.50
2018-04-12T06:26:04.186Z,202.50
2018-04-12T06:27:04.188Z,208.13
2018-04-12T06:28:04.192Z,213.75
2018-04-12T06:29:04.301Z,213.75
2018-04-12T06:30:04.364Z,219.38
2018-04-12T06:31:04.197Z,652.50
2018-04-12T06:32:04.199Z,1620.00
2018-04-12T06:33:04.203Z,2227.50
2018-04-12T06:34:04.205Z,1513.13
2018-04-12T06:35:04.210Z,1141.88
2018-04-12T06:36:04.214Z,1648.13
2018-04-12T06:37:04.218Z,1974.38
2018-04-12T06:38:04.224Z,2216.25
2018-04-12T06:39:04.231Z,2576.25
2018-04-12T06:40:04.239Z,2773.13
2018-04-12T06:41:04.250Z,2655.00
2018-04-12T06:42:04.253Z,2610.00
2018-04-12T06:43:04.261Z,2604.38
2018-04-12T06:44:04.314Z,2334.38
2018-04-12T06:45:04.281Z,1479.38
2018-04-12T06:46:04.291Z,1811.25
2018-04-12T06:47:04.305Z,2401.88
2018-04-12T06:48:04.312Z,1783.13
2018-04-12T06:49:04.322Z,1580.63
2018-04-12T06:50:04.335Z,1051.88
2018-04-12T06:51:04.344Z,1355.63
2018-04-12T06:52:04.354Z,1350.00
2018-04-12T06:53:04.364Z,832.50
2018-04-12T06:54:04.412Z,568.13
2018-04-12T06:55:04.383Z,348.75
2018-04-12T06:56:04.396Z,382.50
2018-04-12T06:57:04.401Z,236.25
2018-04-12T06:58:04.410Z,247.50
2018-04-12T06:59:04.420Z,286.88
2018-04-12T07:00:04.472Z,309.38
2018-04-12T07:01:04.436Z,1220.63
2018-04-12T07:02:04.442Z,967.50
2018-04-12T07:03:04.450Z,573.75
2018-04-12T07:04:04.457Z,1057.50
2018-04-12T07:05:04.469Z,849.38
2018-04-12T07:06:04.475Z,331.88
2018-04-12T07:07:04.477Z,241.88
2018-04-12T07:08:04.485Z,241.88
2018-04-12T07:09:04.494Z,303.75
2018-04-12T07:10:04.498Z,556.88
2018-04-12T07:11:04.505Z,523.13
2018-04-12T07:12:04.516Z,928.13
2018-04-12T07:13:04.588Z,1181.25
2018-04-12T07:14:04.523Z,1552.50
2018-04-12T07:15:04.529Z,1271.25
2018-04-12T07:16:04.537Z,1248.75
2018-04-12T07:17:04.548Z,928.13
2018-04-12T07:18:04.551Z,1153.13
2018-04-12T07:19:04.557Z,652.50
2018-04-12T07:20:04.565Z,270.00
2018-04-12T07:21:04.572Z,241.88
2018-04-12T07:22:04.580Z,236.25
2018-04-12T07:23:04.586Z,236.25
2018-04-12T07:24:04.593Z,270.00
2018-04-12T07:25:04.600Z,382.50
2018-04-12T07:26:04.616Z,450.00
2018-04-12T07:27:04.612Z,669.38
2018-04-12T07:28:04.618Z,556.88
2018-04-12T07:29:04.625Z,697.50
2018-04-12T07:30:04.630Z,855.00
2018-04-12T07:31:04.635Z,1040.63
2018-04-12T07:32:04.643Z,675.00
2018-04-12T07:33:04.650Z,911.25
2018-04-12T07:34:04.656Z,810.00
2018-04-12T07:35:04.663Z,815.63
2018-04-12T07:36:04.668Z,1198.13
2018-04-12T07:37:04.680Z,1231.88
2018-04-12T07:38:04.899Z,1198.13
2018-04-12T07:39:04.687Z,1338.75
2018-04-12T07:40:04.695Z,1423.13
2018-04-12T07:41:04.702Z,1901.25
2018-04-12T07:42:04.710Z,1614.38
2018-04-12T07:43:04.719Z,1586.25
2018-04-12T07:44:04.726Z,1625.63
2018-04-12T07:45:04.735Z,1822.50
2018-04-12T07:46:04.741Z,1614.38
2018-04-12T07:47:04.761Z,1383.75
2018-04-12T07:48:04.760Z,1693.13
2018-04-12T07:49:04.773Z,1321.88
2018-04-12T07:50:04.779Z,1428.75
2018-04-12T07:51:04.791Z,1141.88
2018-04-12T07:52:04.797Z,950.63
2018-04-12T07:53:04.807Z,956.25
2018-04-12T07:54:04.815Z,1102.50
2018-04-12T07:55:04.830Z,1788.75
2018-04-12T07:56:04.837Z,2098.13
2018-04-12T07:57:04.849Z,1704.38
2018-04-12T07:58:04.857Z,1597.50
2018-04-12T07:59:04.868Z,2244.38
2018-04-12T08:00:04.879Z,2379.38
2018-04-12T08:01:04.890Z,2300.63
2018-04-12T08:02:04.921Z,2030.63
2018-04-12T08:03:04.919Z,1479.38
2018-04-12T08:04:04.927Z,2030.63
2018-04-12T08:05:04.995Z,2396.25
2018-04-12T08:06:04.952Z,2874.38
2018-04-12T08:07:04.966Z,2593.13
2018-04-12T08:08:05.044Z,1878.75
2018-04-12T08:09:04.996Z,1760.63
2018-04-12T08:10:05.011Z,1771.88
2018-04-12T08:11:05.021Z,2176.88
2018-04-12T08:12:05.033Z,2075.63
2018-04-12T08:13:05.047Z,2008.13
2018-04-12T08:14:05.059Z,1985.63
2018-04-12T08:15:05.078Z,1670.63
2018-04-12T08:16:05.087Z,1670.63
2018-04-12T08:17:05.102Z,1023.75
2018-04-12T08:18:05.113Z,1051.88
2018-04-12T08:19:05.126Z,967.50
2018-04-12T08:20:05.141Z,1035.00
2018-04-12T08:21:05.151Z,967.50
2018-04-12T08:22:05.451Z,1254.38
2018-04-12T08:23:05.179Z,1136.25
2018-04-12T08:24:05.189Z,1006.88
2018-04-12T08:25:05.205Z,1018.13
2018-04-12T08:26:05.211Z,1361.25
2018-04-12T08:27:05.223Z,1434.38
2018-04-12T08:28:05.237Z,1749.38
2018-04-12T08:29:05.249Z,2109.38
2018-04-12T08:30:05.458Z,1558.13
2018-04-12T08:31:05.269Z,1800.00
2018-04-12T08:32:05.280Z,1670.63
2018-04-12T08:33:05.296Z,1276.88
2018-04-12T08:34:05.312Z,1125.00
2018-04-12T08:35:05.315Z,894.38
2018-04-12T08:36:05.325Z,1395.00
2018-04-12T08:37:05.336Z,1096.88
2018-04-12T08:38:05.570Z,1631.25
2018-04-12T08:39:05.359Z,1743.75
2018-04-12T08:40:05.652Z,1130.63
2018-04-12T08:41:05.381Z,1681.88
2018-04-12T08:42:05.393Z,1288.13
2018-04-12T08:43:05.421Z,1186.88
2018-04-12T08:44:05.414Z,1254.38
2018-04-12T08:45:05.501Z,843.75
2018-04-12T08:46:05.436Z,866.25
2018-04-12T08:47:05.447Z,691.88
2018-04-12T08:48:05.460Z,635.63
2018-04-12T08:49:05.467Z,703.13
2018-04-12T08:50:05.478Z,871.88
2018-04-12T08:51:05.488Z,916.88
2018-04-12T08:52:05.496Z,1074.38
2018-04-12T08:53:05.507Z,1035.00
2018-04-12T08:54:05.517Z,680.63
2018-04-12T08:55:05.528Z,540.00
2018-04-12T08:56:05.537Z,748.13
2018-04-12T08:57:06.022Z,646.88
2018-04-12T08:58:05.864Z,579.38
2018-04-12T08:59:05.737Z,725.63
2018-04-12T09:00:05.576Z,776.25
2018-04-12T09:01:05.597Z,1029.38
2018-04-12T09:02:05.594Z,1051.88
2018-04-12T09:03:05.602Z,1372.50
2018-04-12T09:04:05.612Z,1215.00
2018-04-12T09:05:05.689Z,646.88
2018-04-12T09:06:05.631Z,466.88
2018-04-12T09:07:05.640Z,601.88
2018-04-12T09:08:05.650Z,489.38
2018-04-12T09:09:05.660Z,590.63
2018-04-12T09:10:05.672Z,646.88
2018-04-12T09:11:05.677Z,714.38
2018-04-12T09:12:05.687Z,1040.63
2018-04-12T09:13:05.695Z,1203.75
2018-04-12T09:14:05.741Z,1586.25
2018-04-12T09:15:05.713Z,1805.63
2018-04-12T09:16:05.722Z,1918.13
2018-04-12T09:17:05.732Z,2098.13
2018-04-12T09:18:05.740Z,2261.25
2018-04-12T09:19:05.751Z,2131.88
2018-04-12T09:20:05.763Z,2025.00
2018-04-12T09:21:05.792Z,1957.50
2018-04-12T09:22:05.822Z,1980.00
2018-04-12T09:23:05.797Z,1777.50
2018-04-12T09:24:05.810Z,1805.63
2018-04-12T09:25:05.824Z,1951.88
2018-04-12T09:26:05.833Z,1861.88
2018-04-12T09:27:05.848Z,1901.25
2018-04-12T09:28:05.865Z,1878.75
2018-04-12T09:29:05.875Z,1580.63
2018-04-12T09:30:05.888Z,1833.75
2018-04-12T09:31:05.905Z,1715.63
2018-04-12T09:32:05.915Z,1344.38
2018-04-12T09:33:05.931Z,1046.25
2018-04-12T09:34:05.943Z,1243.13
2018-04-12T09:35:05.961Z,1389.38
2018-04-12T09:36:06.130Z,1850.63
2018-04-12T09:37:05.984Z,1406.25
2018-04-12T09:38:05.994Z,1136.25
2018-04-12T09:39:06.005Z,1130.63
2018-04-12T09:40:06.020Z,1299.38
2018-04-12T09:41:06.058Z,1164.38
2018-04-12T09:42:06.048Z,973.13
2018-04-12T09:43:06.059Z,956.25
2018-04-12T09:44:06.110Z,911.25
2018-04-12T09:45:06.085Z,686.25
2018-04-12T09:46:06.097Z,978.75
2018-04-12T09:47:06.113Z,534.38
2018-04-12T09:48:06.126Z,675.00
2018-04-12T09:49:06.191Z,1046.25
2018-04-12T09:50:06.150Z,1091.25
2018-04-12T09:51:06.162Z,1141.88
2018-04-12T09:52:06.176Z,1203.75
2018-04-12T09:53:06.189Z,1181.25
2018-04-12T09:54:06.202Z,1271.25
2018-04-12T09:55:06.216Z,1406.25
2018-04-12T09:56:06.230Z,1462.50
2018-04-12T09:57:06.246Z,1524.38
2018-04-12T09:58:06.257Z,1563.75
2018-04-12T09:59:06.403Z,1496.25
2018-04-12T10:00:06.302Z,1170.00
2018-04-12T10:01:06.302Z,1001.25
2018-04-12T10:02:06.316Z,1333.13
2018-04-12T10:03:06.329Z,1361.25
2018-04-12T10:04:06.344Z,1372.50
2018-04-12T10:05:06.358Z,1721.25
2018-04-12T10:06:06.376Z,1631.25
2018-04-12T10:07:06.387Z,1563.75
2018-04-12T10:08:06.401Z,1462.50
2018-04-12T10:09:06.415Z,1040.63
2018-04-12T10:10:06.429Z,787.50
2018-04-12T10:11:06.443Z,1125.00
2018-04-12T10:12:06.457Z,933.75
2018-04-12T10:13:06.471Z,708.75
2018-04-12T10:14:06.483Z,933.75
2018-04-12T10:15:06.498Z,995.63
2018-04-12T10:16:06.510Z,1423.13
2018-04-12T10:17:06.524Z,1665.00
2018-04-12T10:18:06.536Z,1248.75
2018-04-12T10:19:06.550Z,601.88
2018-04-12T10:20:06.563Z,1299.38
2018-04-12T10:21:06.576Z,956.25
2018-04-12T10:22:06.588Z,1535.63
2018-04-12T10:23:06.604Z,1591.88
2018-04-12T10:24:06.615Z,1485.00
2018-04-12T10:25:06.630Z,601.88
2018-04-12T10:26:06.642Z,1023.75
2018-04-12T10:27:06.654Z,714.38
2018-04-12T10:28:06.667Z,1366.88
2018-04-12T10:29:06.681Z,1389.38
2018-04-12T10:30:06.692Z,1153.13
2018-04-12T10:31:06.707Z,1361.25
2018-04-12T10:32:06.719Z,1316.25
2018-04-12T10:33:06.734Z,1434.38
2018-04-12T10:34:06.745Z,1423.13
2018-04-12T10:35:06.762Z,1378.13
2018-04-12T10:36:06.773Z,1125.00
2018-04-12T10:37:06.853Z,967.50
2018-04-12T10:38:06.800Z,1310.63
2018-04-12T10:39:06.814Z,1316.25
2018-04-12T10:40:06.830Z,1355.63
2018-04-12T10:41:06.843Z,1299.38
2018-04-12T10:42:06.856Z,1271.25
2018-04-12T10:43:06.869Z,1192.50
2018-04-12T10:44:06.884Z,1108.13
2018-04-12T10:45:06.901Z,596.25
2018-04-12T10:46:06.915Z,663.75
2018-04-12T10:47:06.925Z,736.88
2018-04-12T10:48:06.940Z,759.38
2018-04-12T10:49:06.955Z,1057.50
2018-04-12T10:50:07.007Z,894.38
2018-04-12T10:51:06.984Z,770.63
2018-04-12T10:52:06.995Z,821.25
2018-04-12T10:53:07.009Z,888.75
2018-04-12T10:54:07.022Z,849.38
2018-04-12T10:55:07.034Z,624.38
2018-04-12T10:56:07.052Z,675.00
2018-04-12T10:57:07.062Z,714.38
2018-04-12T10:58:07.072Z,562.50
2018-04-12T10:59:07.086Z,489.38
2018-04-12T11:00:07.097Z,360.00
2018-04-12T11:01:07.111Z,331.88
2018-04-12T11:02:07.121Z,343.13
2018-04-12T11:03:07.133Z,360.00
2018-04-12T11:04:07.146Z,382.50
2018-04-12T11:05:07.156Z,421.88
2018-04-12T11:06:07.166Z,495.00
2018-04-12T11:07:07.283Z,511.88
2018-04-12T11:08:07.189Z,444.38
2018-04-12T11:09:07.198Z,489.38
2018-04-12T11:10:07.207Z,551.25
2018-04-12T11:11:07.222Z,590.63
2018-04-12T11:12:07.230Z,523.13
2018-04-12T11:13:07.239Z,444.38
2018-04-12T11:14:07.277Z,365.63
2018-04-12T11:15:07.346Z,416.25
2018-04-12T11:16:07.270Z,686.25
2018-04-12T11:17:07.279Z,798.75
2018-04-12T11:18:07.289Z,663.75
2018-04-12T11:19:07.299Z,871.88
2018-04-12T11:20:07.311Z,877.50
2018-04-12T11:21:07.344Z,900.00
2018-04-12T11:22:07.331Z,838.13
2018-04-12T11:23:07.420Z,686.25
2018-04-12T11:24:07.594Z,573.75
2018-04-12T11:25:07.364Z,534.38
2018-04-12T11:26:07.374Z,534.38
2018-04-12T11:27:07.392Z,489.38
2018-04-12T11:28:07.397Z,472.50
2018-04-12T11:29:07.408Z,421.88
2018-04-12T11:30:07.427Z,455.63
2018-04-12T11:31:07.430Z,472.50
2018-04-12T11:32:07.440Z,433.13
2018-04-12T11:33:07.465Z,461.25
2018-04-12T11:34:07.474Z,523.13
2018-04-12T11:35:07.496Z,365.63
2018-04-12T11:36:07.504Z,360.00
2018-04-12T11:37:07.770Z,371.25
2018-04-12T11:38:07.661Z,348.75
2018-04-12T11:39:07.509Z,461.25
2018-04-12T11:40:07.602Z,472.50
2018-04-12T11:41:07.555Z,405.00
2018-04-12T11:42:07.536Z,376.88
2018-04-12T11:43:07.547Z,421.88
2018-04-12T11:44:07.556Z,720.00
2018-04-12T11:45:07.589Z,646.88
2018-04-12T11:46:07.574Z,337.50
2018-04-12T11:47:07.585Z,438.75
2018-04-12T11:48:07.594Z,405.00
2018-04-12T11:49:07.610Z,421.88
2018-04-12T11:50:07.612Z,478.13
2018-04-12T11:51:07.626Z,511.88
2018-04-12T11:52:07.631Z,573.75
2018-04-12T11:53:07.643Z,810.00
2018-04-12T11:54:07.651Z,928.13
2018-04-12T11:55:07.666Z,1023.75
2018-04-12T11:56:07.696Z,838.13
2018-04-12T11:57:07.677Z,765.00
2018-04-12T11:58:07.687Z,658.13
2018-04-12T11:59:07.766Z,939.38
2018-04-12T12:00:07.707Z,950.63
2018-04-12T12:01:07.716Z,860.63
2018-04-12T12:02:07.724Z,810.00
2018-04-12T12:03:07.736Z,562.50
2018-04-12T12:04:07.744Z,798.75
2018-04-12T12:05:08.071Z,933.75
2018-04-12T12:06:07.779Z,517.50
2018-04-12T12:07:07.778Z,596.25
2018-04-12T12:08:07.785Z,601.88
2018-04-12T12:09:07.796Z,714.38
2018-04-12T12:10:07.807Z,815.63
2018-04-12T12:11:07.817Z,590.63
2018-04-12T12:12:07.825Z,405.00
2018-04-12T12:13:07.836Z,388.13
2018-04-12T12:14:07.844Z,416.25
2018-04-12T12:15:07.855Z,579.38
2018-04-12T12:16:07.865Z,787.50
2018-04-12T12:17:07.875Z,376.88
2018-04-12T12:18:08.102Z,354.38
2018-04-12T12:19:07.894Z,393.75
2018-04-12T12:20:08.135Z,562.50
2018-04-12T12:21:07.913Z,798.75
2018-04-12T12:22:07.922Z,916.88
2018-04-12T12:23:07.930Z,652.50
2018-04-12T12:24:08.440Z,961.88
2018-04-12T12:25:08.214Z,967.50
2018-04-12T12:26:08.137Z,871.88
2018-04-12T12:27:07.970Z,905.63
2018-04-12T12:28:07.980Z,894.38
2018-04-12T12:29:07.990Z,708.75
2018-04-12T12:30:07.999Z,326.25
2018-04-12T12:31:08.011Z,315.00
2018-04-12T12:32:08.019Z,421.88
2018-04-12T12:33:08.030Z,511.88
2018-04-12T12:34:08.037Z,320.63
2018-04-12T12:35:08.266Z,309.38
2018-04-12T12:36:08.057Z,343.13
2018-04-12T12:37:08.150Z,388.13
2018-04-12T12:38:08.075Z,455.63
2018-04-12T12:39:08.084Z,320.63
2018-04-12T12:40:08.093Z,292.50
2018-04-12T12:41:08.103Z,303.75
2018-04-12T12:42:08.111Z,450.00
2018-04-12T12:43:08.119Z,275.63
2018-04-12T12:44:08.128Z,275.63
2018-04-12T12:45:08.135Z,264.38